Time;durP1;ratioP1;P1;durP2;ratioP2;P2;SDS_P1;SDS_P2;PMS_P1;PMS_P2;Temp;Humidity;BMP_temperature;BMP_pressure;BME280_temperature;BME280_humidity;BME280_pressure;Samples;Min_cycle;Max_cycle;Signal;HPM_P1;HPM_P2
2021/08/06 00:02:05;;;;;;;3.72;3.38;;;16.00;99.90;;;;;;4963003;28;20027;-54
2021/08/06 00:04:31;;;;;;;3.55;3.25;;;16.00;99.90;;;;;;4963961;28;20021;-56
2021/08/06 00:06:56;;;;;;;4.43;3.67;;;15.90;99.90;;;;;;4963750;28;20023;-55
2021/08/06 00:09:22;;;;;;;3.90;3.55;;;15.90;99.90;;;;;;4962633;28;20473;-57
2021/08/06 00:11:47;;;;;;;3.83;2.78;;;15.90;99.90;;;;;;4963785;28;20093;-56
2021/08/06 00:14:13;;;;;;;3.90;3.60;;;15.90;99.90;;;;;;4960026;28;20026;-57
2021/08/06 00:16:39;;;;;;;3.53;3.22;;;15.80;99.90;;;;;;4966430;28;20030;-58
2021/08/06 00:19:04;;;;;;;3.58;3.22;;;15.80;99.90;;;;;;4961352;28;20138;-57
2021/08/06 00:21:30;;;;;;;3.33;3.03;;;15.80;99.90;;;;;;4960067;28;20024;-57
2021/08/06 00:23:56;;;;;;;3.63;3.33;;;15.70;99.90;;;;;;4966171;28;20026;-56
2021/08/06 00:26:21;;;;;;;3.72;3.15;;;15.70;99.90;;;;;;4959276;28;20027;-56
2021/08/06 00:28:47;;;;;;;3.88;2.70;;;15.70;99.90;;;;;;4966381;28;20413;-55
2021/08/06 00:31:13;;;;;;;4.68;3.40;;;15.70;99.90;;;;;;4960241;28;20382;-54
2021/08/06 00:33:39;;;;;;;3.67;3.38;;;15.60;99.90;;;;;;4966196;28;20046;-55
2021/08/06 00:36:04;;;;;;;3.80;3.50;;;15.50;99.90;;;;;;4961033;28;20039;-54
2021/08/06 00:38:30;;;;;;;4.00;3.60;;;15.50;99.90;;;;;;4956564;28;20537;-57
2021/08/06 00:40:56;;;;;;;5.75;4.20;;;15.50;99.90;;;;;;4961646;28;20119;-57
2021/08/06 00:43:22;;;;;;;4.30;3.72;;;15.50;99.90;;;;;;4960435;28;20019;-54
2021/08/06 00:45:47;;;;;;;4.13;3.50;;;15.50;99.90;;;;;;4959331;28;20018;-56
2021/08/06 00:48:13;;;;;;;4.03;3.63;;;15.40;99.90;;;;;;4957021;28;20497;-59
2021/08/06 00:50:39;;;;;;;4.45;3.78;;;15.40;99.90;;;;;;4959812;28;20023;-57
2021/08/06 00:53:06;;;;;;;5.25;4.00;;;15.30;99.90;;;;;;4961223;28;20027;-57
2021/08/06 00:55:32;;;;;;;4.28;3.55;;;15.40;99.90;;;;;;4952723;28;20501;-55
2021/08/06 00:57:57;;;;;;;4.18;3.78;;;15.30;99.90;;;;;;4959053;28;20042;-55
2021/08/06 01:00:23;;;;;;;3.63;3.33;;;15.30;99.90;;;;;;4955964;28;20118;-57
2021/08/06 01:03:11;;;;;;;4.60;4.20;;;15.30;99.90;;;;;;4956883;28;20035;-53
2021/08/06 01:05:43;;;;;;;4.53;4.18;;;15.20;99.90;;;;;;4957933;28;20019;-57
2021/08/06 01:08:17;;;;;;;4.32;3.92;;;15.20;99.90;;;;;;4966173;28;20019;-56
2021/08/06 01:10:47;;;;;;;5.80;4.40;;;15.20;99.90;;;;;;4959303;28;20019;-55
2021/08/06 01:13:17;;;;;;;5.13;4.72;;;15.20;99.90;;;;;;4966498;28;20516;-57
2021/08/06 01:15:48;;;;;;;5.55;4.43;;;15.10;99.90;;;;;;4958979;28;20493;-55
2021/08/06 01:18:17;;;;;;;5.22;4.72;;;15.10;99.90;;;;;;4962257;28;20046;-57
2021/08/06 01:20:54;;;;;;;5.03;4.63;;;15.10;99.90;;;;;;4961360;28;20027;-57
2021/08/06 01:23:29;;;;;;;4.28;3.88;;;15.10;99.90;;;;;;4949091;28;20153;-53
2021/08/06 01:25:56;;;;;;;5.05;4.35;;;15.10;99.90;;;;;;4961289;28;20024;-58
2021/08/06 01:28:29;;;;;;;5.10;4.70;;;15.00;99.90;;;;;;4960823;28;20521;-57
2021/08/06 01:30:55;;;;;;;5.80;4.78;;;15.10;99.90;;;;;;4960665;28;20027;-53
2021/08/06 01:33:21;;;;;;;5.82;5.32;;;15.00;99.90;;;;;;4962197;28;20027;-51
2021/08/06 01:35:47;;;;;;;4.95;4.55;;;15.00;99.90;;;;;;4961518;28;20058;-51
2021/08/06 01:38:14;;;;;;;4.55;4.13;;;15.00;99.90;;;;;;4961589;28;20046;-56
2021/08/06 01:40:41;;;;;;;6.45;5.70;;;15.00;99.90;;;;;;4962372;28;20666;-53
2021/08/06 01:43:21;;;;;;;6.32;5.55;;;14.90;99.90;;;;;;4961193;28;20485;-53
2021/08/06 01:45:55;;;;;;;5.38;4.88;;;14.90;99.90;;;;;;4960086;28;20082;-56
2021/08/06 01:48:27;;;;;;;6.10;5.50;;;14.90;99.90;;;;;;4953984;28;20023;-54
2021/08/06 01:50:53;;;;;;;6.55;5.95;;;14.90;99.90;;;;;;4960667;28;20058;-55
2021/08/06 01:53:20;;;;;;;6.00;5.50;;;14.90;99.90;;;;;;4961179;28;20047;-56
2021/08/06 01:55:56;;;;;;;6.97;5.60;;;14.90;99.90;;;;;;4962063;28;20097;-57
2021/08/06 01:58:23;;;;;;;6.03;5.45;;;14.90;99.90;;;;;;4961569;28;20086;-56
2021/08/06 02:00:50;;;;;;;7.65;5.90;;;14.90;99.90;;;;;;4961318;28;20113;-57
2021/08/06 02:03:17;;;;;;;6.20;5.70;;;14.90;99.90;;;;;;4953698;28;20400;-52
2021/08/06 02:05:43;;;;;;;7.63;5.47;;;14.90;99.90;;;;;;4964728;28;20014;-55
2021/08/06 02:08:09;;;;;;;5.55;5.05;;;14.90;99.90;;;;;;4958255;28;20022;-55
2021/08/06 02:10:35;;;;;;;6.32;4.82;;;14.90;99.90;;;;;;4964534;28;20031;-55
2021/08/06 02:13:02;;;;;;;6.50;5.90;;;14.90;99.90;;;;;;4960011;28;20820;-54
2021/08/06 02:15:28;;;;;;;6.10;5.50;;;15.00;99.90;;;;;;4958301;28;20024;-57
2021/08/06 02:17:54;;;;;;;5.70;5.20;;;15.00;99.90;;;;;;4964673;28;20046;-57
2021/08/06 02:20:21;;;;;;;6.47;5.60;;;15.00;99.90;;;;;;4958212;28;20019;-55
2021/08/06 02:22:48;;;;;;;6.20;5.60;;;15.00;99.90;;;;;;4965223;28;20034;-57
2021/08/06 02:25:16;;;;;;;7.18;6.53;;;14.90;99.90;;;;;;4957754;28;20011;-57
2021/08/06 02:27:42;;;;;;;6.68;5.88;;;15.00;99.90;;;;;;4958085;28;20018;-54
2021/08/06 02:30:09;;;;;;;6.78;6.05;;;15.00;99.90;;;;;;4963987;28;20385;-58
2021/08/06 02:32:36;;;;;;;6.13;5.57;;;15.00;99.90;;;;;;4958669;28;20038;-57
2021/08/06 02:35:02;;;;;;;7.35;5.32;;;15.00;99.90;;;;;;4964721;28;20030;-57
2021/08/06 02:37:28;;;;;;;6.88;5.40;;;15.00;99.90;;;;;;4958426;28;20023;-57
2021/08/06 02:39:54;;;;;;;6.18;5.57;;;14.90;99.90;;;;;;4966055;28;20473;-57
2021/08/06 02:42:19;;;;;;;6.45;5.72;;;15.00;99.90;;;;;;4957693;28;20494;-53
2021/08/06 02:44:45;;;;;;;6.18;5.57;;;15.00;99.90;;;;;;4951681;28;20023;-57
2021/08/06 02:47:10;;;;;;;7.10;5.85;;;15.00;99.90;;;;;;4962906;28;20215;-57
2021/08/06 02:49:36;;;;;;;7.53;5.75;;;15.00;99.90;;;;;;4960020;28;20026;-57
2021/08/06 02:52:04;;;;;;;6.43;5.88;;;15.00;99.90;;;;;;4967366;28;20030;-52
2021/08/06 02:54:31;;;;;;;6.32;5.72;;;15.00;99.90;;;;;;4961074;28;20619;-55
2021/08/06 02:56:56;;;;;;;6.43;5.45;;;15.00;99.90;;;;;;4968921;28;20544;-55
2021/08/06 02:59:22;;;;;;;6.68;5.95;;;15.10;99.90;;;;;;4961157;28;20039;-56
2021/08/06 03:01:47;;;;;;;6.72;6.10;;;15.10;99.90;;;;;;4961200;28;20031;-55
2021/08/06 03:04:13;;;;;;;5.80;5.30;;;15.10;99.90;;;;;;4963685;28;20046;-56
2021/08/06 03:06:39;;;;;;;6.22;5.63;;;15.10;99.90;;;;;;4965050;28;20026;-54
2021/08/06 03:09:04;;;;;;;6.25;5.75;;;15.10;99.90;;;;;;4962323;28;20023;-54
2021/08/06 03:11:30;;;;;;;6.43;5.90;;;15.10;99.90;;;;;;4967476;28;20031;-55
2021/08/06 03:13:56;;;;;;;7.80;7.00;;;15.10;99.90;;;;;;4961967;28;20031;-48
2021/08/06 03:16:22;;;;;;;6.47;5.88;;;15.10;99.90;;;;;;4964193;28;20042;-56
2021/08/06 03:18:47;;;;;;;6.78;6.18;;;15.10;99.90;;;;;;4962768;28;20047;-56
2021/08/06 03:21:13;;;;;;;7.20;6.50;;;15.10;99.90;;;;;;4964183;28;20023;-53
2021/08/06 03:23:39;;;;;;;6.22;5.63;;;15.10;99.90;;;;;;4965062;28;20023;-54
2021/08/06 03:26:05;;;;;;;6.47;5.90;;;15.10;99.90;;;;;;4962785;28;20506;-53
2021/08/06 03:28:31;;;;;;;7.07;6.38;;;15.20;99.90;;;;;;4964319;28;20027;-55
2021/08/06 03:30:56;;;;;;;7.43;6.78;;;15.20;99.90;;;;;;4958022;28;20160;-50
2021/08/06 03:33:22;;;;;;;6.32;5.82;;;15.20;99.90;;;;;;4963965;28;20035;-55
2021/08/06 03:35:48;;;;;;;7.00;6.32;;;15.20;99.90;;;;;;4962988;28;20035;-56
2021/08/06 03:38:19;;;;;;;6.53;5.53;;;15.20;99.90;;;;;;4964183;28;20023;-53
2021/08/06 03:40:45;;;;;;;6.97;6.28;;;15.20;99.90;;;;;;4964841;28;20054;-51
2021/08/06 03:43:11;;;;;;;5.78;5.28;;;15.20;99.90;;;;;;4962302;28;20035;-55
2021/08/06 03:45:37;;;;;;;6.55;5.90;;;15.20;99.90;;;;;;4958349;28;20023;-54
2021/08/06 03:48:04;;;;;;;6.55;5.60;;;15.20;99.90;;;;;;4962223;28;20031;-54
2021/08/06 03:50:30;;;;;;;6.57;6.00;;;15.20;99.90;;;;;;4964035;28;20021;-53
2021/08/06 03:52:55;;;;;;;6.00;5.47;;;15.20;99.90;;;;;;4962206;28;20027;-54
2021/08/06 03:55:21;;;;;;;6.07;5.57;;;15.20;99.90;;;;;;4963514;28;20392;-56
2021/08/06 03:57:54;;;;;;;8.10;6.00;;;15.20;99.90;;;;;;4963647;28;20591;-55
2021/08/06 04:00:21;;;;;;;6.90;5.95;;;15.20;99.90;;;;;;4951390;28;20026;-54
2021/08/06 04:02:47;;;;;;;5.68;5.20;;;15.20;99.90;;;;;;4961585;28;20031;-54
2021/08/06 04:05:13;;;;;;;6.32;5.72;;;15.10;99.90;;;;;;4963749;28;20070;-52
2021/08/06 04:07:43;;;;;;;6.00;5.50;;;15.10;99.90;;;;;;4963726;28;20080;-53
2021/08/06 04:10:11;;;;;;;5.75;5.25;;;15.10;99.90;;;;;;4962066;28;20027;-54
2021/08/06 04:12:37;;;;;;;6.25;5.65;;;15.10;99.90;;;;;;4963504;28;20477;-56
2021/08/06 04:15:03;;;;;;;5.88;5.40;;;15.10;99.90;;;;;;4961664;28;20034;-51
2021/08/06 04:17:28;;;;;;;6.13;5.63;;;15.10;99.90;;;;;;4957313;28;20684;-55
2021/08/06 04:19:54;;;;;;;5.72;5.28;;;15.10;99.90;;;;;;4962792;28;20055;-56
2021/08/06 04:22:19;;;;;;;5.60;5.10;;;15.10;99.90;;;;;;4963070;28;20165;-56
2021/08/06 04:24:45;;;;;;;6.65;5.93;;;15.10;99.90;;;;;;4963081;28;20564;-56
2021/08/06 04:27:10;;;;;;;6.38;5.30;;;15.10;99.90;;;;;;4960398;28;20036;-52
2021/08/06 04:29:36;;;;;;;8.35;5.85;;;15.10;99.90;;;;;;4963637;28;20041;-52
2021/08/06 04:32:02;;;;;;;6.60;5.85;;;15.10;99.90;;;;;;4961364;28;20405;-53
2021/08/06 04:34:28;;;;;;;6.25;5.65;;;15.10;99.90;;;;;;4962926;28;20026;-56
2021/08/06 04:36:54;;;;;;;6.57;5.90;;;15.10;99.90;;;;;;4962160;28;20490;-54
2021/08/06 04:39:20;;;;;;;6.22;5.60;;;15.10;99.90;;;;;;4961844;28;20061;-55
2021/08/06 04:41:48;;;;;;;6.40;5.72;;;15.10;99.90;;;;;;4963700;28;20034;-55
2021/08/06 04:44:15;;;;;;;6.72;6.13;;;15.10;99.90;;;;;;4953294;28;20038;-55
2021/08/06 04:46:40;;;;;;;6.80;6.07;;;15.10;99.90;;;;;;4963593;28;20501;-55
2021/08/06 04:49:06;;;;;;;6.93;6.28;;;15.10;99.90;;;;;;4960736;28;20030;-52
2021/08/06 04:51:31;;;;;;;7.32;6.28;;;15.10;99.90;;;;;;4964295;28;20039;-55
2021/08/06 04:53:57;;;;;;;7.00;6.30;;;15.10;99.90;;;;;;4961920;28;20042;-56
2021/08/06 04:56:22;;;;;;;9.13;8.20;;;15.10;99.90;;;;;;4962714;28;20058;-55
2021/08/06 04:58:48;;;;;;;7.63;6.88;;;15.10;99.90;;;;;;4962589;28;20456;-54
2021/08/06 05:01:13;;;;;;;8.10;7.43;;;15.10;99.90;;;;;;4955960;28;20027;-55
2021/08/06 05:03:39;;;;;;;8.88;8.02;;;15.10;99.90;;;;;;4958718;28;20085;-55
2021/08/06 05:06:05;;;;;;;9.27;8.40;;;15.20;99.90;;;;;;4966636;28;20495;-54
2021/08/06 05:08:30;;;;;;;8.75;7.90;;;15.20;99.90;;;;;;4958805;28;20051;-56
2021/08/06 05:10:56;;;;;;;8.57;7.68;;;15.20;99.90;;;;;;4960011;28;20027;-56
2021/08/06 05:13:21;;;;;;;8.52;7.82;;;15.20;99.90;;;;;;4963326;28;20524;-54
2021/08/06 05:15:47;;;;;;;9.35;7.95;;;15.20;99.90;;;;;;4975340;23;20067;-54
2021/08/06 05:18:13;;;;;;;9.70;8.77;;;15.20;99.90;;;;;;4967195;28;20055;-53
2021/08/06 05:20:38;;;;;;;8.80;8.00;;;15.30;99.90;;;;;;4968090;28;20041;-54
2021/08/06 05:23:05;;;;;;;9.18;8.32;;;15.30;99.90;;;;;;4968221;28;20031;-55
2021/08/06 05:25:31;;;;;;;10.77;9.77;;;15.30;99.90;;;;;;4964934;28;20018;-53
2021/08/06 05:27:56;;;;;;;11.40;9.20;;;15.30;99.90;;;;;;4970759;28;20027;-51
2021/08/06 05:30:22;;;;;;;10.23;8.85;;;15.40;99.90;;;;;;4969150;28;20504;-55
2021/08/06 05:32:49;;;;;;;9.93;9.00;;;15.40;99.90;;;;;;4970130;28;20038;-54
2021/08/06 05:35:15;;;;;;;10.43;9.45;;;15.40;99.90;;;;;;4969982;28;20097;-53
2021/08/06 05:37:41;;;;;;;10.55;9.48;;;15.50;99.90;;;;;;4966081;28;20447;-53
2021/08/06 05:40:07;;;;;;;11.07;9.98;;;15.50;99.90;;;;;;4983459;28;20030;-56
2021/08/06 05:42:32;;;;;;;10.50;8.82;;;15.50;99.90;;;;;;4969056;28;20031;-55
2021/08/06 05:44:58;;;;;;;9.13;8.25;;;15.60;99.90;;;;;;4975795;28;20082;-55
2021/08/06 05:47:23;;;;;;;8.18;7.45;;;15.70;99.90;;;;;;4969131;28;20022;-53
2021/08/06 05:49:49;;;;;;;8.80;7.90;;;15.70;99.90;;;;;;4969789;28;20023;-53
2021/08/06 05:52:15;;;;;;;8.48;7.68;;;15.80;99.90;;;;;;4969599;28;20746;-56
2021/08/06 05:54:40;;;;;;;8.40;6.40;;;15.80;99.90;;;;;;4969062;28;20624;-52
2021/08/06 05:57:06;;;;;;;6.53;5.93;;;15.90;99.90;;;;;;4969477;28;20026;-52
2021/08/06 05:59:32;;;;;;;7.10;6.50;;;15.90;99.90;;;;;;4969115;28;20086;-54
2021/08/06 06:01:57;;;;;;;6.07;5.57;;;16.00;99.90;;;;;;4969287;28;20397;-53
2021/08/06 06:04:23;;;;;;;6.78;5.82;;;16.10;99.90;;;;;;4968489;28;20022;-54
2021/08/06 06:06:48;;;;;;;6.80;6.20;;;16.10;99.90;;;;;;4969066;28;20034;-54
2021/08/06 06:09:14;;;;;;;6.38;5.03;;;16.20;99.90;;;;;;4968606;28;20022;-55
2021/08/06 06:11:39;;;;;;;6.45;5.47;;;16.30;99.90;;;;;;4967574;28;20382;-55
2021/08/06 06:14:05;;;;;;;6.10;5.10;;;16.40;99.90;;;;;;4969199;28;20089;-52
2021/08/06 06:16:31;;;;;;;5.00;4.60;;;16.40;99.90;;;;;;4983740;28;20401;-53
2021/08/06 06:18:56;;;;;;;5.28;4.88;;;16.50;99.90;;;;;;4969165;28;20094;-52
2021/08/06 06:21:22;;;;;;;4.82;4.43;;;16.70;99.90;;;;;;4969233;28;22327;-52
2021/08/06 06:23:48;;;;;;;4.30;4.00;;;16.70;99.90;;;;;;4968768;28;20022;-52
2021/08/06 06:26:14;;;;;;;4.75;4.35;;;16.90;99.90;;;;;;4968514;28;20015;-51
2021/08/06 06:28:39;;;;;;;4.15;3.85;;;17.00;99.90;;;;;;4969073;28;20033;-51
2021/08/06 06:31:05;;;;;;;4.20;3.90;;;17.10;99.90;;;;;;4968842;28;20106;-53
2021/08/06 06:33:30;;;;;;;4.35;3.95;;;17.20;99.90;;;;;;4969368;28;20122;-52
2021/08/06 06:35:56;;;;;;;4.05;3.75;;;17.30;99.90;;;;;;4968906;28;20034;-50
2021/08/06 06:38:22;;;;;;;4.13;3.80;;;17.40;99.90;;;;;;4968666;28;20022;-50
2021/08/06 06:40:47;;;;;;;3.60;3.30;;;17.60;99.90;;;;;;4968817;28;20019;-54
2021/08/06 06:43:13;;;;;;;5.22;3.85;;;17.60;99.90;;;;;;4970138;28;20027;-57
2021/08/06 06:45:39;;;;;;;3.22;3.03;;;17.70;99.90;;;;;;4971082;28;20559;-53
2021/08/06 06:48:08;;;;;;;3.50;3.20;;;17.80;99.90;;;;;;4969017;28;20041;-54
2021/08/06 06:50:33;;;;;;;5.00;3.80;;;17.90;99.90;;;;;;4968257;28;20045;-56
2021/08/06 06:52:59;;;;;;;4.07;3.38;;;18.00;99.90;;;;;;4968460;28;20031;-56
2021/08/06 06:55:24;;;;;;;4.55;3.90;;;18.10;99.90;;;;;;4968796;28;20385;-52
2021/08/06 06:57:56;;;;;;;3.40;3.15;;;18.20;99.90;;;;;;4968728;28;20027;-54
2021/08/06 07:00:27;;;;;;;3.60;3.30;;;18.30;99.90;;;;;;4968354;28;20034;-52
2021/08/06 07:02:52;;;;;;;3.67;3.38;;;18.50;99.90;;;;;;4953805;28;20035;-53
2021/08/06 07:05:19;;;;;;;3.15;2.95;;;18.50;99.90;;;;;;4954067;28;20393;-55
2021/08/06 07:07:44;;;;;;;3.40;3.10;;;18.60;99.90;;;;;;4954153;28;20038;-55
2021/08/06 07:10:11;;;;;;;3.20;3.00;;;18.80;99.90;;;;;;4967059;28;20493;-55
2021/08/06 07:12:38;;;;;;;2.95;2.72;;;18.90;99.90;;;;;;4962574;28;20035;-53
2021/08/06 07:15:05;;;;;;;3.08;2.78;;;19.00;99.90;;;;;;4951417;28;20078;-52
2021/08/06 07:17:31;;;;;;;3.15;2.95;;;19.10;99.90;;;;;;4952946;28;20039;-53
2021/08/06 07:19:57;;;;;;;3.50;3.20;;;19.20;99.90;;;;;;4956075;28;20114;-50
2021/08/06 07:22:23;;;;;;;2.70;2.50;;;19.30;99.90;;;;;;4951172;28;20454;-53
2021/08/06 07:24:49;;;;;;;3.30;3.10;;;19.40;99.90;;;;;;4965057;28;20034;-53
2021/08/06 07:27:14;;;;;;;3.00;2.80;;;19.50;99.90;;;;;;4965761;28;20057;-52
2021/08/06 07:29:40;;;;;;;2.90;2.70;;;19.60;99.90;;;;;;4967210;28;20671;-52
2021/08/06 07:32:06;;;;;;;2.70;2.50;;;19.70;99.90;;;;;;4964015;28;20019;-54
2021/08/06 07:34:32;;;;;;;2.65;2.45;;;19.80;99.90;;;;;;4967267;28;20043;-52
2021/08/06 07:36:58;;;;;;;2.92;2.72;;;19.90;99.90;;;;;;4968483;28;20528;-55
2021/08/06 07:39:23;;;;;;;3.35;2.40;;;20.00;99.90;;;;;;4971539;28;20018;-54
2021/08/06 07:41:49;;;;;;;2.67;2.45;;;20.10;99.90;;;;;;4972329;28;20066;-56
2021/08/06 07:44:15;;;;;;;3.05;2.67;;;20.20;99.90;;;;;;4978100;28;20025;-54
2021/08/06 07:46:40;;;;;;;2.40;2.25;;;20.30;99.90;;;;;;4972027;28;20026;-55
2021/08/06 07:49:06;;;;;;;2.20;2.10;;;20.50;99.90;;;;;;4972106;28;20033;-55
2021/08/06 07:51:31;;;;;;;2.80;2.60;;;20.60;99.90;;;;;;4971909;28;20090;-53
2021/08/06 07:53:57;;;;;;;4.22;2.65;;;20.60;99.90;;;;;;4972003;28;20053;-55
2021/08/06 07:56:23;;;;;;;2.72;2.53;;;20.70;99.90;;;;;;4972072;28;20382;-55
2021/08/06 07:58:48;;;;;;;2.58;2.35;;;20.80;99.90;;;;;;4971890;28;20631;-57
2021/08/06 08:01:14;;;;;;;2.72;2.47;;;20.90;99.90;;;;;;4971331;28;20023;-54
2021/08/06 08:03:40;;;;;;;4.00;2.30;;;21.00;99.90;;;;;;4970538;28;20110;-56
2021/08/06 08:06:05;;;;;;;2.63;2.42;;;21.10;99.90;;;;;;4971469;28;20030;-55
2021/08/06 08:08:32;;;;;;;2.40;2.20;;;21.40;99.90;;;;;;4970153;28;20022;-56
2021/08/06 08:10:58;;;;;;;2.70;2.50;;;21.60;99.90;;;;;;4972041;28;20085;-52
2021/08/06 08:13:24;;;;;;;2.28;2.15;;;21.70;99.90;;;;;;4971524;28;20511;-55
2021/08/06 08:15:50;;;;;;;2.30;2.15;;;21.80;99.90;;;;;;4970641;28;20038;-56
2021/08/06 08:18:16;;;;;;;1.95;1.83;;;21.90;99.90;;;;;;4969821;28;20110;-53
2021/08/06 08:20:42;;;;;;;2.67;2.47;;;22.00;99.90;;;;;;4971360;28;20027;-55
2021/08/06 08:23:08;;;;;;;2.80;2.60;;;22.10;99.90;;;;;;4971347;28;20489;-56
2021/08/06 08:25:34;;;;;;;2.53;2.33;;;22.20;99.90;;;;;;4970916;28;20033;-51
2021/08/06 08:27:59;;;;;;;2.58;2.33;;;22.40;99.90;;;;;;4970821;28;20031;-54
2021/08/06 08:30:25;;;;;;;2.42;2.00;;;22.50;99.90;;;;;;4970841;28;20050;-55
2021/08/06 08:32:50;;;;;;;2.47;2.28;;;22.50;99.90;;;;;;4971034;28;20031;-56
2021/08/06 08:35:16;;;;;;;2.42;2.22;;;22.70;99.90;;;;;;4971433;28;20031;-54
2021/08/06 08:37:41;;;;;;;2.20;2.10;;;22.80;99.90;;;;;;4953009;28;20033;-54
2021/08/06 08:40:08;;;;;;;2.30;2.10;;;23.00;99.90;;;;;;4969643;28;20033;-54
2021/08/06 08:42:34;;;;;;;2.08;1.95;;;23.10;99.90;;;;;;4970573;28;20568;-54
2021/08/06 08:45:02;;;;;;;2.08;1.98;;;23.10;99.90;;;;;;4976991;28;20022;-54
2021/08/06 08:47:31;;;;;;;2.65;2.45;;;23.20;99.90;;;;;;4970887;28;20023;-54
2021/08/06 08:49:57;;;;;;;2.40;2.17;;;23.40;99.90;;;;;;4971422;28;20089;-56
2021/08/06 08:52:23;;;;;;;3.20;2.58;;;23.50;99.90;;;;;;4969573;28;20026;-55
2021/08/06 08:54:48;;;;;;;2.05;1.95;;;23.60;99.90;;;;;;4970325;28;20034;-52
2021/08/06 08:57:19;;;;;;;2.25;2.15;;;23.60;99.90;;;;;;4970668;28;20089;-54
2021/08/06 08:59:44;;;;;;;2.42;2.28;;;23.70;99.90;;;;;;4970749;28;20393;-53
2021/08/06 09:02:10;;;;;;;2.38;2.17;;;23.80;99.90;;;;;;4971014;28;20030;-54
2021/08/06 09:04:36;;;;;;;2.58;2.38;;;23.80;99.90;;;;;;4970722;28;20023;-52
2021/08/06 09:07:02;;;;;;;2.22;2.03;;;23.90;99.90;;;;;;4970482;28;20030;-56
2021/08/06 09:09:28;;;;;;;3.50;2.33;;;24.00;99.90;;;;;;4970871;28;20076;-55
2021/08/06 09:12:03;;;;;;;2.00;1.90;;;24.00;99.90;;;;;;4970839;28;20089;-52
2021/08/06 09:14:30;;;;;;;2.78;2.58;;;24.20;99.90;;;;;;4970409;28;20042;-55
2021/08/06 09:17:00;;;;;;;3.65;2.28;;;24.40;99.90;;;;;;4970592;28;20042;-54
2021/08/06 09:19:27;;;;;;;3.33;2.50;;;24.40;99.90;;;;;;4970719;28;20102;-55
2021/08/06 09:22:13;;;;;;;2.80;2.60;;;24.50;99.90;;;;;;4970347;28;20034;-55
2021/08/06 09:25:02;;;;;;;3.63;2.13;;;24.60;99.90;;;;;;4970357;28;20413;-52
2021/08/06 09:27:29;;;;;;;1.95;1.85;;;24.60;99.90;;;;;;4969254;28;20019;-54
2021/08/06 09:30:00;;;;;;;2.45;2.17;;;24.60;99.90;;;;;;4970369;28;20023;-57
2021/08/06 09:32:44;;;;;;;2.63;2.25;;;24.70;99.90;;;;;;4965562;28;20023;-49
2021/08/06 09:35:14;;;;;;;1.58;1.48;;;24.80;99.90;;;;;;4969046;28;20173;-50
2021/08/06 09:37:40;;;;;;;2.10;2.00;;;24.90;99.90;;;;;;4969987;28;20048;-47
2021/08/06 09:40:22;;;;;;;2.40;2.20;;;25.00;99.90;;;;;;4970461;28;20022;-58
2021/08/06 09:43:14;;;;;;;2.17;1.98;;;25.10;99.90;;;;;;4969569;28;20438;-57
2021/08/06 09:45:42;;;;;;;2.33;2.13;;;25.20;99.60;;;;;;4965171;28;20172;-56
2021/08/06 09:48:11;;;;;;;2.55;2.03;;;25.20;99.10;;;;;;4969723;28;20061;-56
2021/08/06 09:50:46;;;;;;;2.38;2.17;;;25.20;98.40;;;;;;4967105;28;20035;-59
2021/08/06 09:53:12;;;;;;;2.50;2.30;;;25.10;98.90;;;;;;4962752;28;20046;-57
2021/08/06 09:55:48;;;;;;;2.22;2.03;;;25.10;98.10;;;;;;4969249;28;20370;-57
2021/08/06 09:58:20;;;;;;;2.17;1.98;;;25.10;98.10;;;;;;4969065;28;20082;-51
2021/08/06 10:00:48;;;;;;;2.65;2.33;;;25.10;99.10;;;;;;4970091;28;20027;-49
2021/08/06 10:03:35;;;;;;;2.42;2.22;;;25.10;99.10;;;;;;4969843;28;20019;-53
2021/08/06 10:06:09;;;;;;;1.83;1.73;;;25.20;99.40;;;;;;4957801;28;20034;-54
2021/08/06 10:08:36;;;;;;;3.00;2.10;;;25.20;98.60;;;;;;4954735;28;20026;-50
2021/08/06 10:11:01;;;;;;;2.05;1.95;;;25.20;98.10;;;;;;4956594;28;20117;-55
2021/08/06 10:13:27;;;;;;;2.22;2.10;;;25.20;99.10;;;;;;4965820;28;20525;-55
2021/08/06 10:15:52;;;;;;;1.98;1.88;;;25.40;98.00;;;;;;4968702;28;20697;-47
2021/08/06 10:18:18;;;;;;;2.00;1.90;;;25.40;97.00;;;;;;4969289;28;20527;-49
2021/08/06 10:20:48;;;;;;;2.30;2.10;;;25.30;98.00;;;;;;4968743;28;20105;-49
2021/08/06 10:23:14;;;;;;;2.17;2.00;;;25.40;97.40;;;;;;4969563;28;20658;-49
2021/08/06 10:25:40;;;;;;;2.20;2.00;;;25.40;97.90;;;;;;4968572;28;20014;-49
2021/08/06 10:28:06;;;;;;;2.10;1.95;;;25.50;97.80;;;;;;4969051;28;20034;-50
2021/08/06 10:30:35;;;;;;;2.03;1.83;;;25.50;96.40;;;;;;4968995;28;20022;-51
2021/08/06 10:33:25;;;;;;;2.00;1.90;;;25.50;96.50;;;;;;4968940;28;20166;-52
2021/08/06 10:35:54;;;;;;;2.30;2.10;;;25.40;96.30;;;;;;4968453;28;20023;-52
2021/08/06 10:38:42;;;;;;;2.90;1.95;;;25.30;97.60;;;;;;4969153;28;20019;-49
2021/08/06 10:41:16;;;;;;;2.67;2.42;;;25.10;96.60;;;;;;4968966;28;20023;-49
2021/08/06 10:43:57;;;;;;;2.72;2.45;;;25.00;96.60;;;;;;4962048;28;20452;-54
2021/08/06 10:46:23;;;;;;;2.50;2.30;;;24.90;96.30;;;;;;4951910;28;20382;-54
2021/08/06 10:48:51;;;;;;;2.03;1.85;;;25.10;97.50;;;;;;4951992;28;20028;-55
2021/08/06 10:51:16;;;;;;;2.50;2.30;;;25.20;97.90;;;;;;4952852;28;20023;-56
2021/08/06 10:53:43;;;;;;;2.65;2.45;;;25.20;96.90;;;;;;4953400;28;20444;-54
2021/08/06 10:56:17;;;;;;;2.20;2.00;;;25.30;98.00;;;;;;4954279;28;20687;-56
2021/08/06 10:58:49;;;;;;;2.23;2.03;;;25.30;96.90;;;;;;4964082;28;20051;-54
2021/08/06 11:03:54;;;;;;;2.50;2.15;;;25.30;97.60;;;;;;4966153;28;20568;-51
2021/08/06 11:06:47;;;;;;;2.50;2.30;;;25.30;96.70;;;;;;4968728;28;20456;-54
2021/08/06 11:09:25;;;;;;;2.63;2.35;;;25.20;95.50;;;;;;4968544;28;20022;-50
2021/08/06 11:11:59;;;;;;;2.97;2.78;;;25.10;96.90;;;;;;4972577;28;20034;-53
2021/08/06 11:14:39;;;;;;;2.10;2.00;;;24.90;96.50;;;;;;4972833;28;20019;-51
2021/08/06 11:17:09;;;;;;;2.90;2.70;;;24.90;96.10;;;;;;4990364;23;20055;-55
2021/08/06 11:19:54;;;;;;;2.30;2.10;;;24.90;97.10;;;;;;4991202;28;20240;-53
2021/08/06 11:22:34;;;;;;;3.17;2.58;;;24.80;96.90;;;;;;4991297;28;20026;-52
2021/08/06 11:25:07;;;;;;;2.65;2.45;;;24.80;97.60;;;;;;4984199;28;20488;-55
2021/08/06 11:27:39;;;;;;;2.58;2.38;;;24.90;97.90;;;;;;4980477;28;20021;-52
2021/08/06 11:30:09;;;;;;;2.38;2.28;;;24.80;98.20;;;;;;4980271;28;20090;-52
2021/08/06 11:32:51;;;;;;;3.58;2.65;;;24.70;97.30;;;;;;4979313;28;20114;-53
2021/08/06 11:35:19;;;;;;;3.05;2.83;;;24.70;97.50;;;;;;4978901;28;20089;-53
2021/08/06 11:37:57;;;;;;;2.53;2.33;;;24.60;97.70;;;;;;4980869;28;20025;-54
2021/08/06 11:40:28;;;;;;;3.15;2.95;;;24.50;97.00;;;;;;4980020;28;20038;-56
2021/08/06 11:42:54;;;;;;;2.55;2.25;;;24.60;97.90;;;;;;4980318;28;20038;-53
2021/08/06 11:45:28;;;;;;;2.72;2.53;;;24.80;97.40;;;;;;4978527;28;20018;-53
2021/08/06 11:48:00;;;;;;;2.47;2.28;;;25.00;97.00;;;;;;4975718;28;20027;-51
2021/08/06 11:50:53;;;;;;;2.88;2.63;;;25.20;97.70;;;;;;4973647;28;20021;-55
2021/08/06 11:53:21;;;;;;;2.65;2.45;;;25.40;96.40;;;;;;4973770;28;20102;-52
2021/08/06 11:55:50;;;;;;;2.65;2.45;;;25.60;96.70;;;;;;4985603;28;20026;-56
2021/08/06 11:58:37;;;;;;;2.72;2.53;;;25.70;96.90;;;;;;4979913;28;20211;-55
2021/08/06 12:01:05;;;;;;;2.40;2.30;;;25.70;96.70;;;;;;4987343;28;20026;-53
2021/08/06 12:03:41;;;;;;;2.60;2.40;;;25.60;96.70;;;;;;4987356;28;20034;-53
2021/08/06 12:06:07;;;;;;;3.33;2.80;;;25.50;96.30;;;;;;4986478;28;20542;-53
2021/08/06 12:08:34;;;;;;;2.55;2.45;;;25.50;96.10;;;;;;4989177;28;20106;-54
2021/08/06 12:11:05;;;;;;;2.83;2.63;;;25.40;95.10;;;;;;4977317;28;20026;-53
2021/08/06 12:13:36;;;;;;;2.60;2.50;;;25.20;95.70;;;;;;4984989;28;20030;-52
2021/08/06 12:16:11;;;;;;;3.53;3.00;;;25.00;95.50;;;;;;4991029;28;20042;-53
2021/08/06 12:18:47;;;;;;;3.30;3.10;;;25.00;96.90;;;;;;4990724;28;20026;-52
2021/08/06 12:21:17;;;;;;;2.80;2.60;;;25.20;96.30;;;;;;4990416;28;20019;-54
2021/08/06 12:23:48;;;;;;;3.40;3.10;;;25.40;95.70;;;;;;4989531;28;20022;-53
2021/08/06 12:26:22;;;;;;;3.30;2.58;;;25.60;95.90;;;;;;4990159;28;20388;-55
2021/08/06 12:29:24;;;;;;;3.00;2.80;;;25.80;96.00;;;;;;4986671;28;20023;-53
2021/08/06 12:31:56;;;;;;;4.40;3.08;;;25.90;95.70;;;;;;4984928;28;20042;-52
2021/08/06 12:34:26;;;;;;;3.22;3.03;;;26.10;96.20;;;;;;4979860;28;20030;-53
2021/08/06 12:37:08;;;;;;;3.17;2.97;;;26.20;96.30;;;;;;4990300;28;20030;-55
2021/08/06 12:39:56;;;;;;;3.00;2.80;;;26.20;95.10;;;;;;4985215;28;20101;-52
2021/08/06 12:42:40;;;;;;;3.08;2.75;;;26.20;95.00;;;;;;4986096;28;20061;-54
2021/08/06 12:45:24;;;;;;;3.40;3.10;;;26.20;93.90;;;;;;4988077;28;20182;-55
2021/08/06 12:47:55;;;;;;;3.15;2.85;;;26.00;94.90;;;;;;4975982;28;20046;-53
2021/08/06 12:50:26;;;;;;;3.40;3.15;;;25.70;94.60;;;;;;4986176;28;20549;-52
2021/08/06 12:53:06;;;;;;;3.00;2.78;;;25.50;94.90;;;;;;4988943;28;20038;-53
2021/08/06 12:55:33;;;;;;;3.22;2.92;;;25.30;95.20;;;;;;4989673;28;20030;-56